sensor_id;sensor_type;location;lat;lon;timestamp;temperature;humidity
18365;DHT22;9309;52.126;11.616;2023-05-20T00:00:21;13.10;61.10
18365;DHT22;9309;52.126;11.616;2023-05-20T00:02:49;13.20;60.70
18365;DHT22;9309;52.126;11.616;2023-05-20T00:05:16;13.20;60.70
18365;DHT22;9309;52.126;11.616;2023-05-20T00:07:43;13.30;60.30
18365;DHT22;9309;52.126;11.616;2023-05-20T00:10:10;13.30;60.40
18365;DHT22;9309;52.126;11.616;2023-05-20T00:12:37;13.30;60.80
18365;DHT22;9309;52.126;11.616;2023-05-20T00:15:05;13.20;60.80
18365;DHT22;9309;52.126;11.616;2023-05-20T00:17:31;13.30;60.70
18365;DHT22;9309;52.126;11.616;2023-05-20T00:19:59;13.30;60.70
18365;DHT22;9309;52.126;11.616;2023-05-20T00:22:26;13.20;61.00
18365;DHT22;9309;52.126;11.616;2023-05-20T00:24:53;13.30;60.80
18365;DHT22;9309;52.126;11.616;2023-05-20T00:27:19;13.30;60.90
18365;DHT22;9309;52.126;11.616;2023-05-20T00:29:46;13.40;60.50
18365;DHT22;9309;52.126;11.616;2023-05-20T00:32:12;13.30;60.90
18365;DHT22;9309;52.126;11.616;2023-05-20T00:34:39;13.20;61.00
18365;DHT22;9309;52.126;11.616;2023-05-20T00:37:07;13.40;60.60
18365;DHT22;9309;52.126;11.616;2023-05-20T00:39:34;13.40;60.30
18365;DHT22;9309;52.126;11.616;2023-05-20T00:42:01;13.40;60.90
18365;DHT22;9309;52.126;11.616;2023-05-20T00:44:28;13.40;60.60
18365;DHT22;9309;52.126;11.616;2023-05-20T00:46:55;13.30;60.90
18365;DHT22;9309;52.126;11.616;2023-05-20T00:49:21;13.20;61.30
18365;DHT22;9309;52.126;11.616;2023-05-20T00:51:48;13.20;61.50
18365;DHT22;9309;52.126;11.616;2023-05-20T00:54:17;13.30;61.20
18365;DHT22;9309;52.126;11.616;2023-05-20T00:56:44;13.20;61.70
18365;DHT22;9309;52.126;11.616;2023-05-20T00:59:11;13.10;62.10
18365;DHT22;9309;52.126;11.616;2023-05-20T01:01:38;13.10;61.90
18365;DHT22;9309;52.126;11.616;2023-05-20T01:04:06;13.10;62.10
18365;DHT22;9309;52.126;11.616;2023-05-20T01:06:32;13.20;62.00
18365;DHT22;9309;52.126;11.616;2023-05-20T01:08:59;13.20;62.00
18365;DHT22;9309;52.126;11.616;2023-05-20T01:11:31;13.00;62.60
18365;DHT22;9309;52.126;11.616;2023-05-20T01:14:02;13.10;62.50
18365;DHT22;9309;52.126;11.616;2023-05-20T01:16:31;13.00;62.90
18365;DHT22;9309;52.126;11.616;2023-05-20T01:19:01;13.20;62.30
18365;DHT22;9309;52.126;11.616;2023-05-20T01:21:29;13.10;62.60
18365;DHT22;9309;52.126;11.616;2023-05-20T01:23:57;13.00;63.10
18365;DHT22;9309;52.126;11.616;2023-05-20T01:26:26;12.90;63.10
18365;DHT22;9309;52.126;11.616;2023-05-20T01:28:53;12.90;63.30
18365;DHT22;9309;52.126;11.616;2023-05-20T01:31:23;12.80;63.70
18365;DHT22;9309;52.126;11.616;2023-05-20T01:33:55;12.70;64.20
18365;DHT22;9309;52.126;11.616;2023-05-20T01:36:23;12.60;64.60
18365;DHT22;9309;52.126;11.616;2023-05-20T01:38:52;12.80;64.00
18365;DHT22;9309;52.126;11.616;2023-05-20T01:41:21;13.00;63.20
18365;DHT22;9309;52.126;11.616;2023-05-20T01:43:49;12.80;63.90
18365;DHT22;9309;52.126;11.616;2023-05-20T01:46:16;12.70;64.00
18365;DHT22;9309;52.126;11.616;2023-05-20T01:48:42;12.80;63.70
18365;DHT22;9309;52.126;11.616;2023-05-20T01:51:09;12.80;64.00
18365;DHT22;9309;52.126;11.616;2023-05-20T01:53:36;12.90;63.50
18365;DHT22;9309;52.126;11.616;2023-05-20T01:56:04;12.80;64.20
18365;DHT22;9309;52.126;11.616;2023-05-20T01:58:32;12.80;64.00
18365;DHT22;9309;52.126;11.616;2023-05-20T02:00:59;12.80;64.10
18365;DHT22;9309;52.126;11.616;2023-05-20T02:03:26;12.80;64.00
18365;DHT22;9309;52.126;11.616;2023-05-20T02:05:53;12.70;64.60
18365;DHT22;9309;52.126;11.616;2023-05-20T02:08:21;12.60;64.80
18365;DHT22;9309;52.126;11.616;2023-05-20T02:10:48;12.70;64.60
18365;DHT22;9309;52.126;11.616;2023-05-20T02:13:15;12.80;64.50
18365;DHT22;9309;52.126;11.616;2023-05-20T02:15:43;12.70;64.40
18365;DHT22;9309;52.126;11.616;2023-05-20T02:18:10;12.60;64.90
18365;DHT22;9309;52.126;11.616;2023-05-20T02:20:38;12.60;64.80
18365;DHT22;9309;52.126;11.616;2023-05-20T02:23:05;12.60;65.00
18365;DHT22;9309;52.126;11.616;2023-05-20T02:25:33;12.70;64.60
18365;DHT22;9309;52.126;11.616;2023-05-20T02:27:59;12.50;64.90
18365;DHT22;9309;52.126;11.616;2023-05-20T02:30:30;12.60;64.90
18365;DHT22;9309;52.126;11.616;2023-05-20T02:32:58;12.70;64.70
18365;DHT22;9309;52.126;11.616;2023-05-20T02:35:24;12.60;64.90
18365;DHT22;9309;52.126;11.616;2023-05-20T02:37:52;12.40;65.70
18365;DHT22;9309;52.126;11.616;2023-05-20T02:40:18;12.40;65.80
18365;DHT22;9309;52.126;11.616;2023-05-20T02:42:45;12.50;65.70
18365;DHT22;9309;52.126;11.616;2023-05-20T02:45:12;12.50;65.70
18365;DHT22;9309;52.126;11.616;2023-05-20T02:47:39;12.40;65.90
18365;DHT22;9309;52.126;11.616;2023-05-20T02:50:07;12.40;66.30
18365;DHT22;9309;52.126;11.616;2023-05-20T02:52:35;12.40;66.20
18365;DHT22;9309;52.126;11.616;2023-05-20T02:55:03;12.40;66.20
18365;DHT22;9309;52.126;11.616;2023-05-20T02:57:30;12.40;66.70
18365;DHT22;9309;52.126;11.616;2023-05-20T02:59:59;12.30;66.90
18365;DHT22;9309;52.126;11.616;2023-05-20T03:02:26;12.30;66.80
18365;DHT22;9309;52.126;11.616;2023-05-20T03:04:53;12.30;66.90
18365;DHT22;9309;52.126;11.616;2023-05-20T03:07:21;12.30;66.90
18365;DHT22;9309;52.126;11.616;2023-05-20T03:09:48;12.20;67.30
18365;DHT22;9309;52.126;11.616;2023-05-20T03:12:16;12.20;67.50
18365;DHT22;9309;52.126;11.616;2023-05-20T03:14:43;12.30;67.30
18365;DHT22;9309;52.126;11.616;2023-05-20T03:17:09;12.40;66.80
18365;DHT22;9309;52.126;11.616;2023-05-20T03:19:37;12.20;67.50
18365;DHT22;9309;52.126;11.616;2023-05-20T03:22:04;12.30;67.70
18365;DHT22;9309;52.126;11.616;2023-05-20T03:24:33;12.20;67.70
18365;DHT22;9309;52.126;11.616;2023-05-20T03:27:00;12.20;68.10
18365;DHT22;9309;52.126;11.616;2023-05-20T03:29:27;12.20;68.30
18365;DHT22;9309;52.126;11.616;2023-05-20T03:31:54;12.40;67.60
18365;DHT22;9309;52.126;11.616;2023-05-20T03:34:20;12.40;67.60
18365;DHT22;9309;52.126;11.616;2023-05-20T03:36:50;12.40;67.40
18365;DHT22;9309;52.126;11.616;2023-05-20T03:39:17;12.30;67.60
18365;DHT22;9309;52.126;11.616;2023-05-20T03:41:45;12.30;68.20
18365;DHT22;9309;52.126;11.616;2023-05-20T03:44:12;12.40;68.10
18365;DHT22;9309;52.126;11.616;2023-05-20T03:46:39;12.30;68.30
18365;DHT22;9309;52.126;11.616;2023-05-20T03:49:08;12.50;67.40
18365;DHT22;9309;52.126;11.616;2023-05-20T03:51:35;12.60;67.30
18365;DHT22;9309;52.126;11.616;2023-05-20T03:54:07;12.40;68.30
18365;DHT22;9309;52.126;11.616;2023-05-20T03:56:35;12.40;68.30
18365;DHT22;9309;52.126;11.616;2023-05-20T03:59:03;12.40;68.50
18365;DHT22;9309;52.126;11.616;2023-05-20T04:01:31;12.50;68.10
18365;DHT22;9309;52.126;11.616;2023-05-20T04:03:58;12.40;68.40
18365;DHT22;9309;52.126;11.616;2023-05-20T04:06:25;12.30;68.70
18365;DHT22;9309;52.126;11.616;2023-05-20T04:08:53;12.40;68.60
18365;DHT22;9309;52.126;11.616;2023-05-20T04:11:20;12.30;68.90
18365;DHT22;9309;52.126;11.616;2023-05-20T04:13:47;12.50;68.50
18365;DHT22;9309;52.126;11.616;2023-05-20T04:16:15;12.50;68.40
18365;DHT22;9309;52.126;11.616;2023-05-20T04:18:42;12.50;68.20
18365;DHT22;9309;52.126;11.616;2023-05-20T04:21:11;12.50;68.30
18365;DHT22;9309;52.126;11.616;2023-05-20T04:23:38;12.50;68.40
18365;DHT22;9309;52.126;11.616;2023-05-20T04:26:05;12.40;68.80
18365;DHT22;9309;52.126;11.616;2023-05-20T04:28:31;12.30;69.50
18365;DHT22;9309;52.126;11.616;2023-05-20T04:30:59;12.40;68.90
18365;DHT22;9309;52.126;11.616;2023-05-20T04:33:29;12.50;68.60
18365;DHT22;9309;52.126;11.616;2023-05-20T04:35:56;12.40;69.10
18365;DHT22;9309;52.126;11.616;2023-05-20T04:38:23;12.60;68.10
18365;DHT22;9309;52.126;11.616;2023-05-20T04:40:54;12.60;68.10
18365;DHT22;9309;52.126;11.616;2023-05-20T04:43:22;12.40;69.30
18365;DHT22;9309;52.126;11.616;2023-05-20T04:45:50;12.40;69.50
18365;DHT22;9309;52.126;11.616;2023-05-20T04:48:17;12.30;69.70
18365;DHT22;9309;52.126;11.616;2023-05-20T04:50:46;12.30;70.20
18365;DHT22;9309;52.126;11.616;2023-05-20T04:53:14;12.30;70.00
18365;DHT22;9309;52.126;11.616;2023-05-20T04:55:41;12.40;70.00
18365;DHT22;9309;52.126;11.616;2023-05-20T04:58:08;12.50;69.40
18365;DHT22;9309;52.126;11.616;2023-05-20T05:00:39;12.50;69.60
18365;DHT22;9309;52.126;11.616;2023-05-20T05:03:06;12.40;69.40
18365;DHT22;9309;52.126;11.616;2023-05-20T05:05:34;12.50;69.40
18365;DHT22;9309;52.126;11.616;2023-05-20T05:08:03;12.30;70.30
18365;DHT22;9309;52.126;11.616;2023-05-20T05:10:32;12.10;71.00
18365;DHT22;9309;52.126;11.616;2023-05-20T05:12:59;12.20;70.90
18365;DHT22;9309;52.126;11.616;2023-05-20T05:15:26;12.20;71.20
18365;DHT22;9309;52.126;11.616;2023-05-20T05:17:53;12.20;70.90
18365;DHT22;9309;52.126;11.616;2023-05-20T05:20:20;12.40;70.70
18365;DHT22;9309;52.126;11.616;2023-05-20T05:22:47;12.50;70.10
18365;DHT22;9309;52.126;11.616;2023-05-20T05:25:16;12.60;69.40
18365;DHT22;9309;52.126;11.616;2023-05-20T05:27:43;12.40;70.60
18365;DHT22;9309;52.126;11.616;2023-05-20T05:30:10;12.40;69.90
18365;DHT22;9309;52.126;11.616;2023-05-20T05:32:37;12.30;70.50
18365;DHT22;9309;52.126;11.616;2023-05-20T05:35:04;12.40;70.30
18365;DHT22;9309;52.126;11.616;2023-05-20T05:37:31;12.40;70.50
18365;DHT22;9309;52.126;11.616;2023-05-20T05:39:58;12.60;69.70
18365;DHT22;9309;52.126;11.616;2023-05-20T05:42:26;12.40;70.50
18365;DHT22;9309;52.126;11.616;2023-05-20T05:44:54;12.50;70.30
18365;DHT22;9309;52.126;11.616;2023-05-20T05:47:21;12.50;70.30
18365;DHT22;9309;52.126;11.616;2023-05-20T05:49:48;12.50;70.60
18365;DHT22;9309;52.126;11.616;2023-05-20T05:52:16;12.50;70.60
18365;DHT22;9309;52.126;11.616;2023-05-20T05:54:43;12.70;70.10
18365;DHT22;9309;52.126;11.616;2023-05-20T05:57:10;12.90;68.80
18365;DHT22;9309;52.126;11.616;2023-05-20T05:59:38;12.70;69.80
18365;DHT22;9309;52.126;11.616;2023-05-20T06:02:05;12.90;69.00
18365;DHT22;9309;52.126;11.616;2023-05-20T06:04:34;12.90;69.10
18365;DHT22;9309;52.126;11.616;2023-05-20T06:07:01;13.00;69.00
18365;DHT22;9309;52.126;11.616;2023-05-20T06:09:28;13.00;69.10
18365;DHT22;9309;52.126;11.616;2023-05-20T06:11:56;13.30;68.40
18365;DHT22;9309;52.126;11.616;2023-05-20T06:14:23;13.30;68.50
18365;DHT22;9309;52.126;11.616;2023-05-20T06:16:51;13.60;67.40
18365;DHT22;9309;52.126;11.616;2023-05-20T06:19:18;13.60;67.10
18365;DHT22;9309;52.126;11.616;2023-05-20T06:21:45;13.50;67.70
18365;DHT22;9309;52.126;11.616;2023-05-20T06:24:12;13.60;67.30
18365;DHT22;9309;52.126;11.616;2023-05-20T06:26:39;13.80;67.00
18365;DHT22;9309;52.126;11.616;2023-05-20T06:29:07;13.70;67.20
18365;DHT22;9309;52.126;11.616;2023-05-20T06:31:33;13.40;68.30
18365;DHT22;9309;52.126;11.616;2023-05-20T06:34:02;13.30;68.80
18365;DHT22;9309;52.126;11.616;2023-05-20T06:36:29;13.10;69.70
18365;DHT22;9309;52.126;11.616;2023-05-20T06:38:56;13.20;69.70
18365;DHT22;9309;52.126;11.616;2023-05-20T06:41:23;13.40;69.70
18365;DHT22;9309;52.126;11.616;2023-05-20T06:43:50;13.60;68.50
18365;DHT22;9309;52.126;11.616;2023-05-20T06:46:38;13.80;67.80
18365;DHT22;9309;52.126;11.616;2023-05-20T06:49:10;13.90;68.20
18365;DHT22;9309;52.126;11.616;2023-05-20T06:51:37;14.10;67.20
18365;DHT22;9309;52.126;11.616;2023-05-20T06:54:04;14.20;66.60
18365;DHT22;9309;52.126;11.616;2023-05-20T06:56:31;14.40;66.00
18365;DHT22;9309;52.126;11.616;2023-05-20T06:58:58;14.20;66.90
18365;DHT22;9309;52.126;11.616;2023-05-20T07:01:25;14.20;66.70
18365;DHT22;9309;52.126;11.616;2023-05-20T07:03:52;14.10;66.60
18365;DHT22;9309;52.126;11.616;2023-05-20T07:06:20;14.00;67.50
18365;DHT22;9309;52.126;11.616;2023-05-20T07:08:47;14.10;66.80
18365;DHT22;9309;52.126;11.616;2023-05-20T07:11:15;14.30;66.20
18365;DHT22;9309;52.126;11.616;2023-05-20T07:13:41;14.50;66.20
18365;DHT22;9309;52.126;11.616;2023-05-20T07:16:08;14.60;65.40
18365;DHT22;9309;52.126;11.616;2023-05-20T07:18:37;14.50;66.10
18365;DHT22;9309;52.126;11.616;2023-05-20T07:21:04;14.60;65.80
18365;DHT22;9309;52.126;11.616;2023-05-20T07:23:51;14.80;64.50
18365;DHT22;9309;52.126;11.616;2023-05-20T07:26:18;14.50;65.80
18365;DHT22;9309;52.126;11.616;2023-05-20T07:28:45;14.80;65.40
18365;DHT22;9309;52.126;11.616;2023-05-20T07:31:13;15.00;65.00
18365;DHT22;9309;52.126;11.616;2023-05-20T07:33:43;15.40;63.40
18365;DHT22;9309;52.126;11.616;2023-05-20T07:36:11;15.40;63.10
18365;DHT22;9309;52.126;11.616;2023-05-20T07:38:40;15.30;62.70
18365;DHT22;9309;52.126;11.616;2023-05-20T07:41:09;15.10;63.30
18365;DHT22;9309;52.126;11.616;2023-05-20T07:43:36;15.00;64.00
18365;DHT22;9309;52.126;11.616;2023-05-20T07:46:03;15.20;63.70
18365;DHT22;9309;52.126;11.616;2023-05-20T07:48:30;15.50;63.30
18365;DHT22;9309;52.126;11.616;2023-05-20T07:50:56;15.50;62.70
18365;DHT22;9309;52.126;11.616;2023-05-20T07:53:25;15.40;62.20
18365;DHT22;9309;52.126;11.616;2023-05-20T07:55:51;15.10;63.40
18365;DHT22;9309;52.126;11.616;2023-05-20T07:58:20;15.00;64.20
18365;DHT22;9309;52.126;11.616;2023-05-20T08:00:46;15.10;64.20
18365;DHT22;9309;52.126;11.616;2023-05-20T08:03:14;15.00;63.70
18365;DHT22;9309;52.126;11.616;2023-05-20T08:05:52;15.00;64.50
18365;DHT22;9309;52.126;11.616;2023-05-20T08:08:19;15.10;63.70
18365;DHT22;9309;52.126;11.616;2023-05-20T08:10:52;15.20;63.50
18365;DHT22;9309;52.126;11.616;2023-05-20T08:13:22;15.40;63.00
18365;DHT22;9309;52.126;11.616;2023-05-20T08:15:49;15.40;63.30
18365;DHT22;9309;52.126;11.616;2023-05-20T08:18:17;15.40;63.10
18365;DHT22;9309;52.126;11.616;2023-05-20T08:20:44;15.20;63.80
18365;DHT22;9309;52.126;11.616;2023-05-20T08:23:11;15.20;63.80
18365;DHT22;9309;52.126;11.616;2023-05-20T08:25:37;15.30;63.50
18365;DHT22;9309;52.126;11.616;2023-05-20T08:28:05;15.10;63.70
18365;DHT22;9309;52.126;11.616;2023-05-20T08:30:36;15.00;64.70
18365;DHT22;9309;52.126;11.616;2023-05-20T08:33:03;15.20;64.10
18365;DHT22;9309;52.126;11.616;2023-05-20T08:35:30;15.00;64.30
18365;DHT22;9309;52.126;11.616;2023-05-20T08:37:57;15.00;63.90
18365;DHT22;9309;52.126;11.616;2023-05-20T08:40:25;15.00;64.30
18365;DHT22;9309;52.126;11.616;2023-05-20T08:42:52;15.20;63.70
18365;DHT22;9309;52.126;11.616;2023-05-20T08:45:20;15.20;63.90
18365;DHT22;9309;52.126;11.616;2023-05-20T08:47:53;15.10;64.30
18365;DHT22;9309;52.126;11.616;2023-05-20T08:50:20;15.20;63.70
18365;DHT22;9309;52.126;11.616;2023-05-20T08:52:47;15.10;64.20
18365;DHT22;9309;52.126;11.616;2023-05-20T08:55:17;15.10;64.10
18365;DHT22;9309;52.126;11.616;2023-05-20T08:57:47;15.00;64.80
18365;DHT22;9309;52.126;11.616;2023-05-20T09:00:15;15.00;64.80
18365;DHT22;9309;52.126;11.616;2023-05-20T09:02:44;15.10;64.20
18365;DHT22;9309;52.126;11.616;2023-05-20T09:05:12;15.40;63.50
18365;DHT22;9309;52.126;11.616;2023-05-20T09:07:39;15.60;63.20
18365;DHT22;9309;52.126;11.616;2023-05-20T09:10:08;15.60;63.10
18365;DHT22;9309;52.126;11.616;2023-05-20T09:12:35;15.80;62.80
18365;DHT22;9309;52.126;11.616;2023-05-20T09:15:03;15.70;62.60
18365;DHT22;9309;52.126;11.616;2023-05-20T09:17:30;15.50;63.20
18365;DHT22;9309;52.126;11.616;2023-05-20T09:19:56;15.60;63.20
18365;DHT22;9309;52.126;11.616;2023-05-20T09:22:25;15.50;63.30
18365;DHT22;9309;52.126;11.616;2023-05-20T09:24:53;15.40;63.20
18365;DHT22;9309;52.126;11.616;2023-05-20T09:27:20;15.40;63.20
18365;DHT22;9309;52.126;11.616;2023-05-20T09:29:48;15.40;63.30
18365;DHT22;9309;52.126;11.616;2023-05-20T09:32:15;15.50;63.40
18365;DHT22;9309;52.126;11.616;2023-05-20T09:34:42;15.40;63.40
18365;DHT22;9309;52.126;11.616;2023-05-20T09:37:10;15.30;64.20
18365;DHT22;9309;52.126;11.616;2023-05-20T09:39:45;15.30;64.40
18365;DHT22;9309;52.126;11.616;2023-05-20T09:42:19;15.70;63.30
18365;DHT22;9309;52.126;11.616;2023-05-20T09:44:47;16.10;61.80
18365;DHT22;9309;52.126;11.616;2023-05-20T09:47:16;15.90;62.00
18365;DHT22;9309;52.126;11.616;2023-05-20T09:49:45;15.70;62.80
18365;DHT22;9309;52.126;11.616;2023-05-20T09:52:12;15.60;63.30
18365;DHT22;9309;52.126;11.616;2023-05-20T09:54:42;15.50;63.60
18365;DHT22;9309;52.126;11.616;2023-05-20T09:57:09;15.30;64.20
18365;DHT22;9309;52.126;11.616;2023-05-20T09:59:37;15.50;63.80
18365;DHT22;9309;52.126;11.616;2023-05-20T10:02:05;15.50;63.70
18365;DHT22;9309;52.126;11.616;2023-05-20T10:04:34;15.40;64.10
18365;DHT22;9309;52.126;11.616;2023-05-20T10:07:12;15.60;63.40
18365;DHT22;9309;52.126;11.616;2023-05-20T10:09:55;15.70;63.20
18365;DHT22;9309;52.126;11.616;2023-05-20T10:12:32;15.80;63.00
18365;DHT22;9309;52.126;11.616;2023-05-20T10:15:17;15.90;62.40
18365;DHT22;9309;52.126;11.616;2023-05-20T10:17:57;16.10;62.10
18365;DHT22;9309;52.126;11.616;2023-05-20T10:20:28;16.10;62.40
18365;DHT22;9309;52.126;11.616;2023-05-20T10:22:56;16.30;62.00
18365;DHT22;9309;52.126;11.616;2023-05-20T10:25:25;16.50;61.70
18365;DHT22;9309;52.126;11.616;2023-05-20T10:28:03;16.70;60.00
18365;DHT22;9309;52.126;11.616;2023-05-20T10:30:32;16.50;60.70
18365;DHT22;9309;52.126;11.616;2023-05-20T10:33:03;16.30;61.30
18365;DHT22;9309;52.126;11.616;2023-05-20T10:35:31;16.30;61.60
18365;DHT22;9309;52.126;11.616;2023-05-20T10:38:06;16.10;62.00
18365;DHT22;9309;52.126;11.616;2023-05-20T10:40:35;16.30;61.60
18365;DHT22;9309;52.126;11.616;2023-05-20T10:43:08;16.70;60.50
18365;DHT22;9309;52.126;11.616;2023-05-20T10:45:47;17.00;59.40
18365;DHT22;9309;52.126;11.616;2023-05-20T10:48:20;16.90;59.20
18365;DHT22;9309;52.126;11.616;2023-05-20T10:50:47;16.90;59.90
18365;DHT22;9309;52.126;11.616;2023-05-20T10:53:14;17.10;58.80
18365;DHT22;9309;52.126;11.616;2023-05-20T10:55:48;17.10;59.20
18365;DHT22;9309;52.126;11.616;2023-05-20T10:58:16;16.80;59.60
18365;DHT22;9309;52.126;11.616;2023-05-20T11:00:43;16.70;60.10
18365;DHT22;9309;52.126;11.616;2023-05-20T11:03:10;16.70;60.60
18365;DHT22;9309;52.126;11.616;2023-05-20T11:05:38;17.10;59.60
18365;DHT22;9309;52.126;11.616;2023-05-20T11:08:06;17.50;58.30
18365;DHT22;9309;52.126;11.616;2023-05-20T11:10:34;17.80;57.30
18365;DHT22;9309;52.126;11.616;2023-05-20T11:13:03;17.50;57.80
18365;DHT22;9309;52.126;11.616;2023-05-20T11:15:31;17.20;58.60
18365;DHT22;9309;52.126;11.616;2023-05-20T11:18:00;17.40;59.10
18365;DHT22;9309;52.126;11.616;2023-05-20T11:20:27;17.50;57.90
18365;DHT22;9309;52.126;11.616;2023-05-20T11:22:53;17.20;58.60
18365;DHT22;9309;52.126;11.616;2023-05-20T11:25:21;16.90;59.80
18365;DHT22;9309;52.126;11.616;2023-05-20T11:27:49;17.10;59.50
18365;DHT22;9309;52.126;11.616;2023-05-20T11:30:17;17.50;58.70
18365;DHT22;9309;52.126;11.616;2023-05-20T11:32:55;18.00;57.30
18365;DHT22;9309;52.126;11.616;2023-05-20T11:35:23;18.90;54.40
18365;DHT22;9309;52.126;11.616;2023-05-20T11:37:56;19.40;53.50
18365;DHT22;9309;52.126;11.616;2023-05-20T11:40:24;20.80;51.10
18365;DHT22;9309;52.126;11.616;2023-05-20T11:42:53;21.00;48.80
18365;DHT22;9309;52.126;11.616;2023-05-20T11:45:22;21.40;47.80
18365;DHT22;9309;52.126;11.616;2023-05-20T11:48:00;19.90;50.90
18365;DHT22;9309;52.126;11.616;2023-05-20T11:50:27;19.00;53.10
18365;DHT22;9309;52.126;11.616;2023-05-20T11:52:56;18.90;54.00
18365;DHT22;9309;52.126;11.616;2023-05-20T11:55:23;18.30;55.40
18365;DHT22;9309;52.126;11.616;2023-05-20T11:57:50;18.20;55.80
18365;DHT22;9309;52.126;11.616;2023-05-20T12:00:17;18.70;55.30
18365;DHT22;9309;52.126;11.616;2023-05-20T12:02:45;19.40;53.20
18365;DHT22;9309;52.126;11.616;2023-05-20T12:05:12;19.30;52.80
18365;DHT22;9309;52.126;11.616;2023-05-20T12:07:39;19.50;52.90
18365;DHT22;9309;52.126;11.616;2023-05-20T12:10:07;20.20;52.10
18365;DHT22;9309;52.126;11.616;2023-05-20T12:12:34;22.70;45.80
18365;DHT22;9309;52.126;11.616;2023-05-20T12:15:01;23.60;43.00
18365;DHT22;9309;52.126;11.616;2023-05-20T12:17:28;24.00;42.50
18365;DHT22;9309;52.126;11.616;2023-05-20T12:19:56;25.50;39.80
18365;DHT22;9309;52.126;11.616;2023-05-20T12:22:23;26.70;37.90
18365;DHT22;9309;52.126;11.616;2023-05-20T12:24:50;25.70;38.40
18365;DHT22;9309;52.126;11.616;2023-05-20T12:27:17;24.20;40.70
18365;DHT22;9309;52.126;11.616;2023-05-20T12:29:44;22.70;43.70
18365;DHT22;9309;52.126;11.616;2023-05-20T12:32:11;22.30;45.00
18365;DHT22;9309;52.126;11.616;2023-05-20T12:34:37;22.60;45.00
18365;DHT22;9309;52.126;11.616;2023-05-20T12:37:05;24.90;40.90
18365;DHT22;9309;52.126;11.616;2023-05-20T12:39:32;27.10;36.90
18365;DHT22;9309;52.126;11.616;2023-05-20T12:41:59;27.60;35.40
18365;DHT22;9309;52.126;11.616;2023-05-20T12:44:25;25.30;38.40
18365;DHT22;9309;52.126;11.616;2023-05-20T12:46:54;23.40;42.40
18365;DHT22;9309;52.126;11.616;2023-05-20T12:49:20;23.80;41.90
18365;DHT22;9309;52.126;11.616;2023-05-20T12:51:47;24.50;40.60
18365;DHT22;9309;52.126;11.616;2023-05-20T12:54:16;26.50;37.20
18365;DHT22;9309;52.126;11.616;2023-05-20T12:56:44;28.30;34.70
18365;DHT22;9309;52.126;11.616;2023-05-20T12:59:12;28.90;33.90
18365;DHT22;9309;52.126;11.616;2023-05-20T13:01:38;30.60;31.50
18365;DHT22;9309;52.126;11.616;2023-05-20T13:04:05;29.90;31.90
18365;DHT22;9309;52.126;11.616;2023-05-20T13:06:33;29.80;32.10
18365;DHT22;9309;52.126;11.616;2023-05-20T13:08:59;29.50;32.50
18365;DHT22;9309;52.126;11.616;2023-05-20T13:11:27;27.10;35.60
18365;DHT22;9309;52.126;11.616;2023-05-20T13:13:54;25.00;39.20
18365;DHT22;9309;52.126;11.616;2023-05-20T13:16:22;26.00;38.20
18365;DHT22;9309;52.126;11.616;2023-05-20T13:18:48;26.20;37.80
18365;DHT22;9309;52.126;11.616;2023-05-20T13:21:15;27.50;35.70
18365;DHT22;9309;52.126;11.616;2023-05-20T13:23:42;27.40;35.60
18365;DHT22;9309;52.126;11.616;2023-05-20T13:26:09;29.40;33.10
18365;DHT22;9309;52.126;11.616;2023-05-20T13:28:39;30.10;32.50
18365;DHT22;9309;52.126;11.616;2023-05-20T13:31:06;31.30;30.50
18365;DHT22;9309;52.126;11.616;2023-05-20T13:33:33;30.10;31.60
18365;DHT22;9309;52.126;11.616;2023-05-20T13:36:00;30.10;32.10
18365;DHT22;9309;52.126;11.616;2023-05-20T13:38:26;29.70;32.20
18365;DHT22;9309;52.126;11.616;2023-05-20T13:40:53;27.00;35.00
18365;DHT22;9309;52.126;11.616;2023-05-20T13:43:23;24.90;39.00
18365;DHT22;9309;52.126;11.616;2023-05-20T13:45:52;24.30;40.30
18365;DHT22;9309;52.126;11.616;2023-05-20T13:48:19;24.80;39.70
18365;DHT22;9309;52.126;11.616;2023-05-20T13:50:46;26.70;36.80
18365;DHT22;9309;52.126;11.616;2023-05-20T13:53:12;28.40;34.20
18365;DHT22;9309;52.126;11.616;2023-05-20T13:55:39;29.40;32.70
18365;DHT22;9309;52.126;11.616;2023-05-20T13:58:06;29.40;32.50
18365;DHT22;9309;52.126;11.616;2023-05-20T14:00:34;28.60;33.70
18365;DHT22;9309;52.126;11.616;2023-05-20T14:03:02;27.60;34.80
18365;DHT22;9309;52.126;11.616;2023-05-20T14:05:29;29.00;33.20
18365;DHT22;9309;52.126;11.616;2023-05-20T14:07:56;27.70;34.80
18365;DHT22;9309;52.126;11.616;2023-05-20T14:10:23;27.80;34.80
18365;DHT22;9309;52.126;11.616;2023-05-20T14:12:51;27.80;35.00
18365;DHT22;9309;52.126;11.616;2023-05-20T14:15:18;27.80;34.60
18365;DHT22;9309;52.126;11.616;2023-05-20T14:17:44;27.00;35.70
18365;DHT22;9309;52.126;11.616;2023-05-20T14:20:13;25.30;39.10
18365;DHT22;9309;52.126;11.616;2023-05-20T14:22:40;24.10;40.80
18365;DHT22;9309;52.126;11.616;2023-05-20T14:25:07;23.30;42.80
18365;DHT22;9309;52.126;11.616;2023-05-20T14:27:34;21.90;45.70
18365;DHT22;9309;52.126;11.616;2023-05-20T14:30:00;21.20;47.60
18365;DHT22;9309;52.126;11.616;2023-05-20T14:32:27;21.00;48.80
18365;DHT22;9309;52.126;11.616;2023-05-20T14:34:54;21.00;48.80
18365;DHT22;9309;52.126;11.616;2023-05-20T14:37:22;20.80;49.80
18365;DHT22;9309;52.126;11.616;2023-05-20T14:39:49;20.90;49.80
18365;DHT22;9309;52.126;11.616;2023-05-20T14:42:15;20.50;50.20
18365;DHT22;9309;52.126;11.616;2023-05-20T14:44:42;20.40;50.70
18365;DHT22;9309;52.126;11.616;2023-05-20T14:47:09;20.30;51.10
18365;DHT22;9309;52.126;11.616;2023-05-20T14:49:35;20.80;50.10
18365;DHT22;9309;52.126;11.616;2023-05-20T14:52:04;21.10;49.30
18365;DHT22;9309;52.126;11.616;2023-05-20T14:54:33;20.90;49.90
18365;DHT22;9309;52.126;11.616;2023-05-20T14:57:00;20.90;50.00
18365;DHT22;9309;52.126;11.616;2023-05-20T14:59:27;20.90;50.50
18365;DHT22;9309;52.126;11.616;2023-05-20T15:01:53;20.90;50.40
18365;DHT22;9309;52.126;11.616;2023-05-20T15:04:20;20.90;49.90
18365;DHT22;9309;52.126;11.616;2023-05-20T15:06:47;20.80;50.10
18365;DHT22;9309;52.126;11.616;2023-05-20T15:09:13;20.50;50.90
18365;DHT22;9309;52.126;11.616;2023-05-20T15:11:42;20.60;50.80
18365;DHT22;9309;52.126;11.616;2023-05-20T15:14:08;20.70;50.90
18365;DHT22;9309;52.126;11.616;2023-05-20T15:16:35;20.60;50.70
18365;DHT22;9309;52.126;11.616;2023-05-20T15:19:02;20.30;51.10
18365;DHT22;9309;52.126;11.616;2023-05-20T15:21:29;20.30;51.40
18365;DHT22;9309;52.126;11.616;2023-05-20T15:23:56;20.10;52.00
18365;DHT22;9309;52.126;11.616;2023-05-20T15:26:23;20.10;52.60
18365;DHT22;9309;52.126;11.616;2023-05-20T15:28:51;20.10;52.40
18365;DHT22;9309;52.126;11.616;2023-05-20T15:31:17;20.00;52.70
18365;DHT22;9309;52.126;11.616;2023-05-20T15:33:45;20.00;52.60